createdAt,value
2022-07-26T00:00:08.554Z,99002.31
2022-07-26T00:02:48.218Z,99009.63
2022-07-26T00:05:14.672Z,99005.80
2022-07-26T00:07:46.932Z,99008.48
2022-07-26T00:10:19.012Z,99004.94
2022-07-26T00:12:51.095Z,99004.44
2022-07-26T00:15:24.969Z,99008.08
2022-07-26T00:17:57.035Z,99003.91
2022-07-26T00:20:29.288Z,99009.39
2022-07-26T00:23:01.589Z,98997.06
2022-07-26T00:25:33.622Z,99006.07
2022-07-26T00:28:06.396Z,99013.22
2022-07-26T00:30:38.675Z,99009.73
2022-07-26T00:33:10.812Z,99014.38
2022-07-26T00:35:43.288Z,99012.88
2022-07-26T00:38:15.426Z,99014.54
2022-07-26T00:40:47.552Z,99012.72
2022-07-26T00:43:19.728Z,99011.88
2022-07-26T00:45:51.846Z,99011.06
2022-07-26T00:48:23.949Z,99012.06
2022-07-26T00:50:56.658Z,99008.39
2022-07-26T00:53:28.848Z,99004.72
2022-07-26T00:56:01.010Z,99009.05
2022-07-26T00:58:33.106Z,99007.55
2022-07-26T01:01:05.429Z,99005.88
2022-07-26T01:03:39.482Z,99002.53
2022-07-26T01:06:11.782Z,98999.86
2022-07-26T01:08:44.100Z,98991.20
2022-07-26T01:11:16.120Z,98989.70
2022-07-26T01:13:50.066Z,99000.67
2022-07-26T01:16:22.375Z,98999.33
2022-07-26T01:18:54.552Z,98998.02
2022-07-26T01:21:29.673Z,98995.84
2022-07-26T01:24:02.662Z,98998.20
2022-07-26T01:26:34.943Z,98985.72
2022-07-26T01:29:07.085Z,98997.88
2022-07-26T01:31:39.345Z,99000.05
2022-07-26T01:34:11.971Z,98999.52
2022-07-26T01:36:44.294Z,99000.36
2022-07-26T01:39:16.653Z,99006.86
2022-07-26T01:41:48.858Z,99002.50
2022-07-26T01:44:20.865Z,99010.34
2022-07-26T01:46:52.950Z,99004.34
2022-07-26T01:49:25.027Z,99011.34
2022-07-26T01:51:57.417Z,99010.72
2022-07-26T01:54:29.589Z,99014.73
2022-07-26T01:57:01.964Z,99023.39
2022-07-26T01:59:34.413Z,99023.08
2022-07-26T02:02:06.768Z,99016.42
2022-07-26T02:04:56.536Z,99015.41
2022-07-26T02:07:35.201Z,99014.41
2022-07-26T02:10:10.749Z,99025.08
2022-07-26T02:12:45.027Z,99026.73
2022-07-26T02:15:18.883Z,99029.09
2022-07-26T02:17:50.925Z,99018.11
2022-07-26T02:20:24.716Z,99030.12
2022-07-26T02:22:56.797Z,99029.81
2022-07-26T02:25:29.271Z,99027.48
2022-07-26T02:28:01.820Z,99030.64
2022-07-26T02:30:33.935Z,99019.50
2022-07-26T02:33:06.158Z,99022.82
2022-07-26T02:35:38.518Z,99044.70
2022-07-26T02:38:13.281Z,99045.35
2022-07-26T02:40:46.359Z,99048.71
2022-07-26T02:43:18.638Z,99048.05
2022-07-26T02:46:00.983Z,99050.23
2022-07-26T02:48:24.583Z,99052.39
2022-07-26T02:50:56.950Z,99056.40
2022-07-26T02:53:29.362Z,99056.11
2022-07-26T02:56:01.669Z,99053.77
2022-07-26T02:58:33.958Z,99059.64
2022-07-26T03:01:06.845Z,99063.66
2022-07-26T03:03:38.950Z,99065.80
2022-07-26T03:06:11.219Z,99070.66
2022-07-26T03:08:43.367Z,99068.48
2022-07-26T03:11:15.554Z,99066.14
2022-07-26T03:13:48.244Z,99072.01
2022-07-26T03:16:20.580Z,99072.34
2022-07-26T03:18:54.280Z,99081.36
2022-07-26T03:21:26.447Z,99078.70
2022-07-26T03:23:58.954Z,99079.34
2022-07-26T03:26:31.089Z,99083.02
2022-07-26T03:29:03.527Z,99089.34
2022-07-26T03:31:35.783Z,99079.00
2022-07-26T03:34:08.883Z,99086.03
2022-07-26T03:36:43.404Z,99079.66
2022-07-26T03:39:16.196Z,99076.98
2022-07-26T03:41:48.619Z,99077.61
2022-07-26T03:44:20.880Z,99076.61
2022-07-26T03:46:53.026Z,99070.22
2022-07-26T03:49:25.558Z,99078.86
2022-07-26T03:51:57.806Z,99069.82
2022-07-26T03:54:30.013Z,99074.16
2022-07-26T03:57:02.058Z,99083.80
2022-07-26T03:59:34.355Z,99079.43
2022-07-26T04:02:06.726Z,99080.38
2022-07-26T04:04:39.146Z,99072.47
2022-07-26T04:07:12.735Z,99083.30
2022-07-26T04:09:45.122Z,99084.11
2022-07-26T04:12:17.389Z,99085.08
2022-07-26T04:14:50.090Z,99095.06
2022-07-26T04:17:22.761Z,99091.02
2022-07-26T04:19:54.932Z,99093.82
2022-07-26T04:22:27.147Z,99081.94
2022-07-26T04:24:59.579Z,99083.92
2022-07-26T04:27:34.637Z,99081.06
2022-07-26T04:30:12.544Z,99076.00
2022-07-26T04:32:43.113Z,99073.43
2022-07-26T04:35:16.728Z,99073.19
2022-07-26T04:37:49.373Z,99081.97
2022-07-26T04:40:24.016Z,99081.91
2022-07-26T04:42:55.660Z,99075.38
2022-07-26T04:45:28.209Z,99093.73
2022-07-26T04:48:00.678Z,99084.82
2022-07-26T04:50:33.735Z,99092.13
2022-07-26T04:53:06.171Z,99090.92
2022-07-26T04:55:39.157Z,99088.91
2022-07-26T04:58:12.664Z,99089.58
2022-07-26T05:01:08.967Z,99088.38
2022-07-26T05:03:19.280Z,99083.85
2022-07-26T05:05:52.290Z,99092.17
2022-07-26T05:08:24.791Z,99090.97
2022-07-26T05:10:57.898Z,99093.75
2022-07-26T05:13:31.103Z,99096.53
2022-07-26T05:16:03.987Z,99096.17
2022-07-26T05:18:45.715Z,99093.30
2022-07-26T05:21:12.037Z,99093.58
2022-07-26T05:25:00.334Z,99103.77
2022-07-26T05:27:33.790Z,99092.28
2022-07-26T05:30:06.813Z,99089.86
2022-07-26T05:32:40.516Z,99096.52
2022-07-26T05:35:15.692Z,99102.02
2022-07-26T05:37:48.815Z,99106.63
2022-07-26T05:40:21.975Z,99105.52
2022-07-26T05:42:57.360Z,99102.73
2022-07-26T05:45:31.103Z,99104.02
2022-07-26T05:48:03.355Z,99103.92
2022-07-26T05:50:37.488Z,99104.36
2022-07-26T05:53:09.845Z,99094.90
2022-07-26T05:55:44.216Z,99092.50
2022-07-26T05:58:19.874Z,99091.55
2022-07-26T06:00:53.351Z,99088.36
2022-07-26T06:03:26.146Z,99086.87
2022-07-26T06:06:00.519Z,99090.71
2022-07-26T06:08:37.427Z,99085.83
2022-07-26T06:11:10.053Z,99089.80
2022-07-26T06:13:43.496Z,99087.20
2022-07-26T06:16:16.821Z,99089.05
2022-07-26T06:18:55.651Z,99096.94
2022-07-26T06:21:30.955Z,99091.74
2022-07-26T06:24:06.117Z,99092.64
2022-07-26T06:26:38.710Z,99085.23
2022-07-26T06:29:11.402Z,99092.69
2022-07-26T06:31:46.991Z,99089.62
2022-07-26T06:34:24.911Z,99090.78
2022-07-26T06:37:05.807Z,99092.94
2022-07-26T06:39:42.115Z,99097.52
2022-07-26T06:42:18.402Z,99085.98
2022-07-26T06:44:54.750Z,99089.71
2022-07-26T06:47:32.860Z,99083.12
2022-07-26T06:50:13.275Z,99087.05
2022-07-26T06:52:47.982Z,99087.31
2022-07-26T06:55:27.710Z,99077.39
2022-07-26T06:58:12.753Z,99086.73
2022-07-26T07:00:58.956Z,99082.48
2022-07-26T07:03:44.975Z,99079.41
2022-07-26T07:06:21.965Z,99072.20
2022-07-26T07:08:55.422Z,99080.52
2022-07-26T07:11:29.922Z,99075.79
2022-07-26T07:14:10.681Z,99073.31
2022-07-26T07:16:45.730Z,99066.91
2022-07-26T07:19:18.736Z,99068.63
2022-07-26T07:22:03.485Z,99077.97
2022-07-26T07:24:37.169Z,99066.14
2022-07-26T07:27:13.057Z,99070.70
2022-07-26T07:29:51.102Z,99074.88
2022-07-26T07:32:24.827Z,99076.74
2022-07-26T07:35:01.292Z,99064.91
2022-07-26T07:37:53.016Z,99075.30
2022-07-26T07:40:13.523Z,99074.05
2022-07-26T07:42:46.587Z,99067.42
2022-07-26T07:45:23.334Z,99082.37
2022-07-26T07:47:58.070Z,99077.81
2022-07-26T07:50:30.869Z,99082.19
2022-07-26T07:53:04.138Z,99076.98
2022-07-26T07:55:41.399Z,99089.84
2022-07-26T07:58:09.675Z,99082.57
2022-07-26T08:00:42.333Z,99087.52
2022-07-26T08:03:17.991Z,99077.78
2022-07-26T08:05:51.356Z,99076.31
2022-07-26T08:08:31.605Z,99073.59
2022-07-26T08:11:04.973Z,99075.23
2022-07-26T08:13:43.359Z,99083.77
2022-07-26T08:16:14.485Z,99082.72
2022-07-26T08:18:56.986Z,99081.44
2022-07-26T08:21:29.251Z,99090.30
2022-07-26T08:24:03.052Z,99081.80
2022-07-26T08:26:56.343Z,99084.30
2022-07-26T08:29:31.459Z,99084.30
2022-07-26T08:32:07.574Z,99088.86
2022-07-26T08:34:42.522Z,99084.69
2022-07-26T08:37:17.611Z,99088.38
2022-07-26T08:39:50.144Z,99087.92
2022-07-26T08:42:24.168Z,99083.14
2022-07-26T08:44:57.055Z,99089.39
2022-07-26T08:47:37.473Z,99093.08
2022-07-26T08:50:03.686Z,99080.56
2022-07-26T08:52:36.603Z,99086.14
2022-07-26T08:55:09.364Z,99086.95
2022-07-26T08:57:42.588Z,99084.45
2022-07-26T09:00:25.004Z,99083.43
2022-07-26T09:03:00.432Z,99077.34
2022-07-26T09:05:36.022Z,99085.03
2022-07-26T09:08:28.343Z,99089.56
2022-07-26T09:11:02.681Z,99089.34
2022-07-26T09:13:56.609Z,99084.77
2022-07-26T09:16:30.811Z,99088.08
2022-07-26T09:19:22.945Z,99086.42
2022-07-26T09:21:57.909Z,99095.88
2022-07-26T09:24:43.338Z,99095.84
2022-07-26T09:27:19.282Z,99096.04
2022-07-26T09:29:54.299Z,99096.09
2022-07-26T09:32:28.411Z,99095.16
2022-07-26T09:35:45.992Z,99094.86
2022-07-26T09:37:52.824Z,99089.30
2022-07-26T09:40:27.256Z,99083.67
2022-07-26T09:43:02.132Z,99086.02
2022-07-26T09:45:37.287Z,99091.14
2022-07-26T09:48:12.493Z,99100.53
2022-07-26T09:50:48.719Z,99090.97
2022-07-26T09:53:22.999Z,99084.20
2022-07-26T09:55:57.851Z,99083.05
2022-07-26T09:58:30.499Z,99073.62
2022-07-26T10:01:02.805Z,99071.35
2022-07-26T10:03:36.053Z,99069.65
2022-07-26T10:06:08.747Z,99077.17
2022-07-26T10:08:41.632Z,99085.59
2022-07-26T10:11:16.728Z,99086.30
2022-07-26T10:13:49.626Z,99089.17
2022-07-26T10:16:34.848Z,99088.31
2022-07-26T10:19:09.119Z,99084.30
2022-07-26T10:21:41.773Z,99077.31
2022-07-26T10:24:27.256Z,99085.12
2022-07-26T10:26:59.655Z,99073.44
2022-07-26T10:29:32.127Z,99079.32
2022-07-26T10:32:15.534Z,99076.60
2022-07-26T10:34:48.042Z,99074.24
2022-07-26T10:37:27.446Z,99073.08
2022-07-26T10:40:22.901Z,99076.77
2022-07-26T10:42:56.559Z,99072.00
2022-07-26T10:45:29.976Z,99074.72
2022-07-26T10:48:17.418Z,99061.03
2022-07-26T10:50:52.548Z,99069.90
2022-07-26T10:53:27.615Z,99070.13
2022-07-26T10:56:01.841Z,99068.48
2022-07-26T10:58:36.913Z,99063.98
2022-07-26T11:01:09.463Z,99059.02
2022-07-26T11:03:43.700Z,99049.55
2022-07-26T11:06:18.782Z,99053.88
2022-07-26T11:08:51.305Z,99052.66
2022-07-26T11:11:33.077Z,99053.00
2022-07-26T11:14:14.050Z,99055.28
2022-07-26T11:16:48.992Z,99049.97
2022-07-26T11:19:21.674Z,99043.64
2022-07-26T11:22:01.771Z,99049.45
2022-07-26T11:24:34.360Z,99045.92
2022-07-26T11:27:07.156Z,99041.08
2022-07-26T11:29:41.486Z,99043.38
2022-07-26T11:32:22.669Z,99040.23
2022-07-26T11:35:04.602Z,99043.49
2022-07-26T11:37:37.090Z,99038.64
2022-07-26T11:40:09.888Z,99048.38
2022-07-26T11:42:42.772Z,99038.99
2022-07-26T11:45:16.825Z,99035.36
2022-07-26T11:47:49.479Z,99030.20
2022-07-26T11:50:23.270Z,99033.81
2022-07-26T11:52:56.517Z,99043.88
2022-07-26T11:55:31.204Z,99036.94
2022-07-26T11:58:07.522Z,99027.97
2022-07-26T12:00:40.271Z,99029.73
2022-07-26T12:03:13.004Z,99020.41
2022-07-26T12:05:48.650Z,99015.08
2022-07-26T12:08:21.559Z,99030.33
2022-07-26T12:10:56.818Z,99024.03
2022-07-26T12:13:29.190Z,99022.59
2022-07-26T12:16:03.118Z,99012.95
2022-07-26T12:18:36.805Z,99010.06
2022-07-26T12:21:09.966Z,99005.48
2022-07-26T12:23:49.031Z,99014.27
2022-07-26T12:26:26.899Z,98994.39
2022-07-26T12:29:17.683Z,98996.94
2022-07-26T12:32:12.695Z,99013.05
2022-07-26T12:35:06.199Z,99015.45
2022-07-26T12:37:49.470Z,99011.03
2022-07-26T12:40:27.183Z,99013.75
2022-07-26T12:43:02.919Z,99001.53
2022-07-26T12:45:38.361Z,99001.53
2022-07-26T12:48:11.953Z,99005.70
2022-07-26T12:50:44.006Z,99006.06
2022-07-26T12:53:16.153Z,99035.84
2022-07-26T12:55:48.878Z,99025.42
2022-07-26T12:58:21.260Z,99015.55
2022-07-26T13:00:53.829Z,99013.04
2022-07-26T13:03:25.893Z,99017.34
2022-07-26T13:05:58.638Z,99015.58
2022-07-26T13:08:31.169Z,99026.67
2022-07-26T13:11:03.803Z,99035.02
2022-07-26T13:13:35.951Z,99034.67
2022-07-26T13:16:12.082Z,99039.66
2022-07-26T13:18:42.784Z,99047.87
2022-07-26T13:21:15.609Z,99055.13
2022-07-26T13:23:47.616Z,99055.79
2022-07-26T13:26:20.971Z,99050.90
2022-07-26T13:28:54.973Z,99059.81
2022-07-26T13:31:27.712Z,99064.62
2022-07-26T13:34:00.290Z,99063.28
2022-07-26T13:36:33.039Z,99063.05
2022-07-26T13:39:06.199Z,99063.13
2022-07-26T13:41:39.061Z,99061.52
2022-07-26T13:44:12.718Z,99068.59
2022-07-26T13:46:46.446Z,99074.36
2022-07-26T13:49:19.351Z,99078.11
2022-07-26T13:51:57.786Z,99073.22
2022-07-26T13:54:33.146Z,99064.82
2022-07-26T13:57:08.009Z,99055.89
2022-07-26T13:59:40.682Z,99051.70
2022-07-26T14:02:13.396Z,99050.39
2022-07-26T14:04:46.233Z,99057.30
2022-07-26T14:07:19.086Z,99064.20
2022-07-26T14:09:51.546Z,99064.55
2022-07-26T14:12:24.062Z,99066.20
2022-07-26T14:14:56.432Z,99061.17
2022-07-26T14:17:28.839Z,99062.33
2022-07-26T14:20:01.584Z,99054.36
2022-07-26T14:22:33.999Z,99041.81
2022-07-26T14:25:07.658Z,99045.66
2022-07-26T14:27:41.105Z,99052.79
2022-07-26T14:30:15.067Z,99050.36
2022-07-26T14:32:47.584Z,99055.56
2022-07-26T14:35:19.673Z,99062.66
2022-07-26T14:37:52.137Z,99053.30
2022-07-26T14:40:24.488Z,99059.91
2022-07-26T14:42:56.807Z,99065.06
2022-07-26T14:45:29.611Z,99064.63
2022-07-26T14:48:02.414Z,99072.12
2022-07-26T14:50:59.807Z,99073.36
2022-07-26T14:53:12.063Z,99075.61
2022-07-26T14:55:44.834Z,99073.94
2022-07-26T14:58:18.400Z,99071.20
2022-07-26T15:00:52.690Z,99065.13
2022-07-26T15:03:25.009Z,99063.83
2022-07-26T15:05:57.674Z,99065.44
2022-07-26T15:08:30.373Z,99075.74
2022-07-26T15:11:04.601Z,99072.55
2022-07-26T15:13:37.753Z,99072.70
2022-07-26T15:16:10.310Z,99065.89
2022-07-26T15:18:42.349Z,99059.81
2022-07-26T15:21:16.923Z,99063.82
2022-07-26T15:23:49.991Z,99058.20
2022-07-26T15:26:22.953Z,99052.68
2022-07-26T15:28:55.279Z,99050.33
2022-07-26T15:31:36.917Z,99050.53
2022-07-26T15:34:01.108Z,99044.86
2022-07-26T15:36:33.669Z,99052.82
2022-07-26T15:39:16.678Z,99043.60
2022-07-26T15:41:40.318Z,99049.00
2022-07-26T15:44:13.383Z,99045.79
2022-07-26T15:46:48.611Z,99042.25
2022-07-26T15:49:20.724Z,99044.78
2022-07-26T15:51:52.469Z,99051.11
2022-07-26T15:54:24.610Z,99044.48
2022-07-26T15:56:57.588Z,99042.84
2022-07-26T15:59:30.807Z,99061.53
2022-07-26T16:02:02.946Z,99069.86
2022-07-26T16:04:35.736Z,99089.00
2022-07-26T16:07:08.094Z,99085.84
2022-07-26T16:09:40.508Z,99083.25
2022-07-26T16:12:13.383Z,99083.83
2022-07-26T16:14:45.672Z,99087.48
2022-07-26T16:17:18.080Z,99099.86
2022-07-26T16:19:50.521Z,99091.39
2022-07-26T16:22:22.855Z,99103.34
2022-07-26T16:24:55.383Z,99098.59
2022-07-26T16:27:27.804Z,99110.26
2022-07-26T16:30:01.121Z,99106.95
2022-07-26T16:32:34.114Z,99111.73
2022-07-26T16:35:07.765Z,99110.09
2022-07-26T16:37:41.492Z,99099.27
2022-07-26T16:40:14.469Z,99098.20
2022-07-26T16:42:46.584Z,99108.82
2022-07-26T16:45:19.604Z,99089.70
2022-07-26T16:47:56.802Z,99092.47
2022-07-26T16:50:27.981Z,99097.08
2022-07-26T16:53:00.864Z,99090.06
2022-07-26T16:55:33.450Z,99087.83
2022-07-26T16:58:06.283Z,99086.23
2022-07-26T17:00:38.739Z,99083.78
2022-07-26T17:03:11.566Z,99087.81
2022-07-26T17:05:46.417Z,99089.94
2022-07-26T17:08:18.637Z,99100.06
2022-07-26T17:10:50.979Z,99113.89
2022-07-26T17:13:23.293Z,99106.64
2022-07-26T17:15:55.849Z,99110.41
2022-07-26T17:18:28.461Z,99110.84
2022-07-26T17:21:00.717Z,99114.32
2022-07-26T17:23:32.842Z,99109.77
2022-07-26T17:26:05.439Z,99109.95
2022-07-26T17:28:37.458Z,99116.15
2022-07-26T17:31:09.765Z,99112.39
2022-07-26T17:33:41.976Z,99126.02
2022-07-26T17:36:30.890Z,99128.09
2022-07-26T17:39:05.136Z,99140.70
2022-07-26T17:41:37.351Z,99141.08
2022-07-26T17:44:11.059Z,99153.98
2022-07-26T17:46:43.573Z,99144.75
2022-07-26T17:49:16.818Z,99146.97
2022-07-26T17:51:51.010Z,99147.97
2022-07-26T17:54:24.361Z,99143.13
2022-07-26T17:57:01.408Z,99147.41
2022-07-26T17:59:31.611Z,99148.22
2022-07-26T18:02:04.212Z,99150.67
2022-07-26T18:04:37.039Z,99152.09
2022-07-26T18:07:09.479Z,99141.09
2022-07-26T18:09:41.770Z,99142.70
2022-07-26T18:12:13.959Z,99151.16
2022-07-26T18:14:46.152Z,99140.78
2022-07-26T18:17:18.319Z,99147.58
2022-07-26T18:19:50.385Z,99144.27
2022-07-26T18:22:23.468Z,99142.61
2022-07-26T18:24:55.819Z,99148.00
2022-07-26T18:27:28.472Z,99154.19
2022-07-26T18:30:00.907Z,99152.53
2022-07-26T18:32:34.473Z,99152.73
2022-07-26T18:35:08.226Z,99141.53
2022-07-26T18:37:40.534Z,99146.26
2022-07-26T18:40:12.899Z,99143.91
2022-07-26T18:42:45.120Z,99152.67
2022-07-26T18:45:17.489Z,99153.71
2022-07-26T18:47:49.805Z,99144.95
2022-07-26T18:50:22.979Z,99148.02
2022-07-26T18:52:55.221Z,99151.12
2022-07-26T18:55:28.333Z,99156.70
2022-07-26T18:58:04.737Z,99156.05
2022-07-26T19:00:34.490Z,99149.38
2022-07-26T19:03:06.839Z,99148.95
2022-07-26T19:05:39.420Z,99151.39
2022-07-26T19:08:11.553Z,99150.92
2022-07-26T19:10:43.739Z,99155.87
2022-07-26T19:13:16.335Z,99147.36
2022-07-26T19:15:48.489Z,99158.69
2022-07-26T19:18:20.884Z,99152.68
2022-07-26T19:20:53.152Z,99157.41
2022-07-26T19:23:25.465Z,99156.59
2022-07-26T19:25:57.658Z,99158.25
2022-07-26T19:28:29.679Z,99160.28
2022-07-26T19:31:01.897Z,99168.16
2022-07-26T19:33:33.892Z,99164.91
2022-07-26T19:36:06.396Z,99169.44
2022-07-26T19:38:38.549Z,99171.95
2022-07-26T19:41:15.692Z,99172.98
2022-07-26T19:43:44.463Z,99168.63
2022-07-26T19:46:16.732Z,99171.09
2022-07-26T19:48:49.061Z,99166.56
2022-07-26T19:51:21.960Z,99164.06
2022-07-26T19:53:54.184Z,99166.94
2022-07-26T19:56:26.534Z,99162.78
2022-07-26T19:59:00.931Z,99152.40
2022-07-26T20:01:33.061Z,99154.21
2022-07-26T20:04:05.292Z,99156.64
2022-07-26T20:06:37.346Z,99165.71
2022-07-26T20:09:09.767Z,99154.70
2022-07-26T20:11:43.079Z,99151.72
2022-07-26T20:14:15.280Z,99153.13
2022-07-26T20:16:48.877Z,99150.00
2022-07-26T20:19:21.333Z,99145.80
2022-07-26T20:21:53.407Z,99147.87
2022-07-26T20:24:25.721Z,99140.17
2022-07-26T20:26:58.354Z,99146.39
2022-07-26T20:29:30.842Z,99137.05
2022-07-26T20:32:03.498Z,99141.94
2022-07-26T20:34:35.622Z,99137.97
2022-07-26T20:37:07.789Z,99139.00
2022-07-26T20:39:40.261Z,99140.02
2022-07-26T20:42:14.910Z,99135.28
2022-07-26T20:44:46.165Z,99148.27
2022-07-26T20:47:18.221Z,99142.08
2022-07-26T20:49:51.114Z,99138.30
2022-07-26T20:52:23.384Z,99146.90
2022-07-26T20:54:57.437Z,99144.39
2022-07-26T20:57:29.887Z,99139.61
2022-07-26T21:00:02.105Z,99144.13
2022-07-26T21:02:35.303Z,99142.00
2022-07-26T21:05:08.168Z,99146.07
2022-07-26T21:07:57.381Z,99154.53
2022-07-26T21:10:14.559Z,99150.37
2022-07-26T21:12:46.723Z,99147.20
2022-07-26T21:15:19.455Z,99150.42
2022-07-26T21:17:52.661Z,99148.28
2022-07-26T21:20:25.292Z,99151.52
2022-07-26T21:23:12.807Z,99150.61
2022-07-26T21:25:36.392Z,99150.13
2022-07-26T21:28:08.588Z,99141.98
2022-07-26T21:30:40.970Z,99146.44
2022-07-26T21:33:13.659Z,99149.66
2022-07-26T21:35:45.835Z,99150.58
2022-07-26T21:38:17.836Z,99154.65
2022-07-26T21:40:49.853Z,99151.47
2022-07-26T21:43:22.038Z,99158.22
2022-07-26T21:45:54.154Z,99155.25
2022-07-26T21:48:26.768Z,99158.47
2022-07-26T21:50:58.893Z,99162.14
2022-07-26T21:53:31.104Z,99153.95
2022-07-26T21:56:04.822Z,99161.33
2022-07-26T21:58:37.393Z,99171.39
2022-07-26T22:01:12.277Z,99160.38
2022-07-26T22:03:45.065Z,99163.59
2022-07-26T22:06:17.584Z,99165.80
2022-07-26T22:08:50.049Z,99169.02
2022-07-26T22:11:22.406Z,99163.53
2022-07-26T22:13:54.828Z,99164.09
2022-07-26T22:16:27.066Z,99169.98
2022-07-26T22:18:59.654Z,99168.31
2022-07-26T22:21:33.068Z,99166.45
2022-07-26T22:24:05.806Z,99175.75
2022-07-26T22:26:38.432Z,99168.95
2022-07-26T22:29:12.270Z,99163.98
2022-07-26T22:31:44.679Z,99169.52
2022-07-26T22:34:17.163Z,99164.97
2022-07-26T22:36:50.072Z,99156.92
2022-07-26T22:39:22.557Z,99158.97
2022-07-26T22:42:14.380Z,99161.82
2022-07-26T22:44:28.596Z,99158.50
2022-07-26T22:47:00.742Z,99168.55
2022-07-26T22:49:33.039Z,99164.20
2022-07-26T22:52:05.637Z,99169.06
2022-07-26T22:54:38.074Z,99160.39
2022-07-26T22:57:10.199Z,99164.90
2022-07-26T22:59:42.680Z,99170.64
2022-07-26T23:02:15.143Z,99169.45
2022-07-26T23:04:47.218Z,99169.13
2022-07-26T23:07:19.951Z,99168.30
2022-07-26T23:09:53.822Z,99168.82
2022-07-26T23:12:25.824Z,99169.84
2022-07-26T23:14:58.097Z,99159.64
2022-07-26T23:17:30.108Z,99161.82
2022-07-26T23:20:02.276Z,99165.69
2022-07-26T23:22:34.850Z,99165.22
2022-07-26T23:25:07.738Z,99163.70
2022-07-26T23:27:40.292Z,99160.55
2022-07-26T23:30:12.723Z,99157.86
2022-07-26T23:32:45.137Z,99158.20
2022-07-26T23:35:17.536Z,99165.94
2022-07-26T23:37:49.619Z,99158.62
2022-07-26T23:40:21.881Z,99169.67
2022-07-26T23:42:56.666Z,99165.50
2022-07-26T23:45:28.877Z,99166.69
2022-07-26T23:48:00.662Z,99171.30
2022-07-26T23:50:32.973Z,99165.84
2022-07-26T23:53:05.524Z,99164.52
2022-07-26T23:55:37.633Z,99156.48
2022-07-26T23:58:11.925Z,99161.20
